createdAt,value
2017-08-12T00:00:45.644Z,2.40
2017-08-12T00:03:14.027Z,4.87
2017-08-12T00:05:43.397Z,4.20
2017-08-12T00:08:11.785Z,3.90
2017-08-12T00:10:40.152Z,3.83
2017-08-12T00:13:08.538Z,2.87
2017-08-12T00:15:37.020Z,3.50
2017-08-12T00:18:05.489Z,3.63
2017-08-12T00:20:33.860Z,10.03
2017-08-12T00:23:02.248Z,3.67
2017-08-12T00:25:30.724Z,3.93
2017-08-12T00:27:59.211Z,3.40
2017-08-12T00:30:27.788Z,6.67
2017-08-12T00:32:56.272Z,3.93
2017-08-12T00:35:24.641Z,7.50
2017-08-12T00:37:54.052Z,7.23
2017-08-12T00:40:22.419Z,7.90
2017-08-12T00:42:50.841Z,5.33
2017-08-12T00:45:19.213Z,6.60
2017-08-12T00:47:47.608Z,8.03
2017-08-12T00:50:16.072Z,4.83
2017-08-12T00:52:44.464Z,9.87
2017-08-12T00:55:14.948Z,4.13
2017-08-12T00:57:43.331Z,5.03
2017-08-12T01:00:13.872Z,5.63
2017-08-12T01:02:43.044Z,3.33
2017-08-12T01:05:11.407Z,4.93
2017-08-12T01:07:39.776Z,7.20
2017-08-12T01:10:08.160Z,6.03
2017-08-12T01:12:36.525Z,6.50
2017-08-12T01:15:04.933Z,7.83
2017-08-12T01:17:33.403Z,4.77
2017-08-12T01:20:01.818Z,10.90
2017-08-12T01:22:30.185Z,6.73
2017-08-12T01:24:58.635Z,5.93
2017-08-12T01:27:26.995Z,8.70
2017-08-12T01:29:55.397Z,8.20
2017-08-12T01:32:23.768Z,11.10
2017-08-12T01:34:52.465Z,6.70
2017-08-12T01:37:20.826Z,8.10
2017-08-12T01:39:49.218Z,5.20
2017-08-12T01:42:17.690Z,9.83
2017-08-12T01:44:46.182Z,7.17
2017-08-12T01:47:14.600Z,9.83
2017-08-12T01:49:44.159Z,11.60
2017-08-12T01:52:12.599Z,8.37
2017-08-12T01:54:41.072Z,8.80
2017-08-12T01:57:09.440Z,7.23
2017-08-12T01:59:37.923Z,11.70
2017-08-12T02:02:06.304Z,6.40
2017-08-12T02:04:34.784Z,7.70
2017-08-12T02:07:03.159Z,7.60
2017-08-12T02:09:32.568Z,3.90
2017-08-12T02:12:00.936Z,5.43
2017-08-12T02:14:29.320Z,5.90
2017-08-12T02:16:57.694Z,4.43
2017-08-12T02:19:26.073Z,8.07
2017-08-12T02:21:55.374Z,7.23
2017-08-12T02:24:23.761Z,13.47
2017-08-12T02:26:52.135Z,6.87
2017-08-12T02:29:20.615Z,9.73
2017-08-12T02:31:48.977Z,11.37
2017-08-12T02:34:17.475Z,7.17
2017-08-12T02:36:45.830Z,5.30
2017-08-12T02:39:15.171Z,4.80
2017-08-12T02:41:43.539Z,7.40
2017-08-12T02:44:11.934Z,8.93
2017-08-12T02:46:40.383Z,5.87
2017-08-12T02:49:08.772Z,6.10
2017-08-12T02:51:37.256Z,5.20
2017-08-12T02:54:05.644Z,6.67
2017-08-12T02:56:34.021Z,7.80
2017-08-12T02:59:02.405Z,9.47
2017-08-12T03:01:30.865Z,3.60
2017-08-12T03:03:59.336Z,6.10
2017-08-12T03:06:27.824Z,6.40
2017-08-12T03:08:56.203Z,5.17
2017-08-12T03:11:24.590Z,7.37
2017-08-12T03:13:53.008Z,5.63
2017-08-12T03:16:21.396Z,6.97
2017-08-12T03:18:49.764Z,5.10
2017-08-12T03:21:18.236Z,6.83
2017-08-12T03:23:46.601Z,6.33
2017-08-12T03:26:14.990Z,8.53
2017-08-12T03:28:43.377Z,5.83
2017-08-12T03:31:11.861Z,8.00
2017-08-12T03:33:40.339Z,6.00
2017-08-12T03:36:08.730Z,5.67
2017-08-12T03:38:37.095Z,5.53
2017-08-12T03:41:05.573Z,8.83
2017-08-12T03:43:34.965Z,8.83
2017-08-12T03:46:04.296Z,6.80
2017-08-12T03:48:32.756Z,5.43
2017-08-12T03:51:01.192Z,7.80
2017-08-12T03:53:29.564Z,5.10
2017-08-12T03:55:58.048Z,7.00
2017-08-12T03:58:26.429Z,4.40
2017-08-12T04:00:55.721Z,7.30
2017-08-12T04:03:24.088Z,5.77
2017-08-12T04:05:52.488Z,5.43
2017-08-12T04:08:21.058Z,4.00
2017-08-12T04:10:49.545Z,7.50
2017-08-12T04:13:17.904Z,4.50
2017-08-12T04:15:46.314Z,6.53
2017-08-12T04:18:14.711Z,5.50
2017-08-12T04:20:43.164Z,7.73
2017-08-12T04:23:11.649Z,7.60
2017-08-12T04:25:40.115Z,4.00
2017-08-12T04:28:08.695Z,4.77
2017-08-12T04:30:37.068Z,6.33
2017-08-12T04:33:05.442Z,3.60
2017-08-12T04:35:33.839Z,6.10
2017-08-12T04:38:02.314Z,5.70
2017-08-12T04:40:30.704Z,6.37
2017-08-12T04:42:59.184Z,7.30
2017-08-12T04:45:27.617Z,5.83
2017-08-12T04:47:56.029Z,15.13
2017-08-12T04:50:24.476Z,7.80
2017-08-12T04:52:53.056Z,11.00
2017-08-12T04:55:21.537Z,8.00
2017-08-12T04:57:49.894Z,8.93
2017-08-12T05:00:18.284Z,5.00
2017-08-12T05:02:46.670Z,8.23
2017-08-12T05:05:15.031Z,8.00
2017-08-12T05:07:43.529Z,9.80
2017-08-12T05:10:11.896Z,7.40
2017-08-12T05:12:40.383Z,9.77
2017-08-12T05:15:08.856Z,6.70
2017-08-12T05:17:37.231Z,8.10
2017-08-12T05:20:06.580Z,5.60
2017-08-12T05:22:35.007Z,6.40
2017-08-12T05:25:04.324Z,10.07
2017-08-12T05:27:32.694Z,5.47
2017-08-12T05:30:01.081Z,8.00
2017-08-12T05:32:29.564Z,10.40
2017-08-12T05:34:58.040Z,6.70
2017-08-12T05:37:26.448Z,10.33
2017-08-12T05:39:54.846Z,8.80
2017-08-12T05:42:23.380Z,5.87
2017-08-12T05:44:51.860Z,7.37
2017-08-12T05:47:20.348Z,7.67
2017-08-12T05:49:48.740Z,7.17
2017-08-12T05:52:17.109Z,7.30
2017-08-12T05:54:45.572Z,11.93
2017-08-12T05:57:13.945Z,6.47
2017-08-12T05:59:42.440Z,10.20
2017-08-12T06:02:10.813Z,8.90
2017-08-12T06:04:39.184Z,10.60
2017-08-12T06:07:07.580Z,11.43
2017-08-12T06:09:36.053Z,11.00
2017-08-12T06:12:05.144Z,14.90
2017-08-12T06:14:33.614Z,14.00
2017-08-12T06:17:01.985Z,12.20
2017-08-12T06:19:30.480Z,12.37
2017-08-12T06:21:58.852Z,13.30
2017-08-12T06:24:27.340Z,14.80
2017-08-12T06:26:55.716Z,16.60
2017-08-12T06:29:24.104Z,10.67
2017-08-12T06:31:52.480Z,12.97
2017-08-12T06:34:20.891Z,18.40
2017-08-12T06:36:49.341Z,18.47
2017-08-12T06:39:17.785Z,17.40
2017-08-12T06:41:46.164Z,17.50
2017-08-12T06:44:14.553Z,19.17
2017-08-12T06:46:43.863Z,21.70
2017-08-12T06:49:12.347Z,15.90
2017-08-12T06:51:40.748Z,18.40
2017-08-12T06:54:09.212Z,20.27
2017-08-12T06:56:37.801Z,19.97
2017-08-12T06:59:06.225Z,16.33
2017-08-12T07:01:35.600Z,24.83
2017-08-12T07:04:03.981Z,23.90
2017-08-12T07:06:32.436Z,23.60
2017-08-12T07:09:00.804Z,22.57
2017-08-12T07:11:29.387Z,32.00
2017-08-12T07:13:57.851Z,23.53
2017-08-12T07:16:26.261Z,24.67
2017-08-12T07:18:55.661Z,21.50
2017-08-12T07:21:24.084Z,21.33
2017-08-12T07:23:52.460Z,20.47
2017-08-12T07:26:20.853Z,28.73
2017-08-12T07:28:49.231Z,28.37
2017-08-12T07:31:17.649Z,21.93
2017-08-12T07:33:46.021Z,24.77
2017-08-12T07:36:14.436Z,30.13
2017-08-12T07:38:42.827Z,24.97
2017-08-12T07:41:11.221Z,27.30
2017-08-12T07:43:39.643Z,25.43
2017-08-12T07:46:08.124Z,27.03
2017-08-12T07:48:36.505Z,27.77
2017-08-12T07:51:04.998Z,38.33
2017-08-12T07:53:33.401Z,26.47
2017-08-12T07:56:01.772Z,34.37
2017-08-12T07:58:30.160Z,25.70
2017-08-12T08:00:58.600Z,30.77
2017-08-12T08:03:27.005Z,26.20
2017-08-12T08:05:55.456Z,23.20
2017-08-12T08:08:23.953Z,26.30
2017-08-12T08:10:52.328Z,20.93
2017-08-12T08:13:20.802Z,19.90
2017-08-12T08:15:49.178Z,21.77
2017-08-12T08:18:17.574Z,18.67
2017-08-12T08:20:46.044Z,22.53
2017-08-12T08:23:14.527Z,20.20
2017-08-12T08:25:42.997Z,22.33
2017-08-12T08:28:11.384Z,21.07
2017-08-12T08:30:39.866Z,22.10
2017-08-12T08:33:08.268Z,17.23
2017-08-12T08:35:36.676Z,18.43
2017-08-12T08:38:05.161Z,19.73
2017-08-12T08:40:33.539Z,18.73
2017-08-12T08:43:02.016Z,19.97
2017-08-12T08:45:30.432Z,18.23
2017-08-12T08:47:58.965Z,22.90
2017-08-12T08:50:27.445Z,19.83
2017-08-12T08:52:55.944Z,23.80
2017-08-12T08:55:24.320Z,18.90
2017-08-12T08:57:52.796Z,19.47
2017-08-12T09:00:21.273Z,22.17
2017-08-12T09:02:49.761Z,20.13
2017-08-12T09:05:18.236Z,15.87
2017-08-12T09:07:46.653Z,21.83
2017-08-12T09:10:15.036Z,22.87
2017-08-12T09:12:43.433Z,24.20
2017-08-12T09:15:11.858Z,21.50
2017-08-12T09:17:40.251Z,23.40
2017-08-12T09:20:08.629Z,18.47
2017-08-12T09:22:37.049Z,17.03
2017-08-12T09:25:05.476Z,18.77
2017-08-12T09:27:33.863Z,21.00
2017-08-12T09:30:02.334Z,22.03
2017-08-12T09:32:31.821Z,18.43
2017-08-12T09:35:00.310Z,18.93
2017-08-12T09:37:28.752Z,18.97
2017-08-12T09:39:57.268Z,20.40
2017-08-12T09:42:25.652Z,22.50
2017-08-12T09:44:54.050Z,25.43
2017-08-12T09:47:22.504Z,22.97
2017-08-12T09:49:50.901Z,25.20
2017-08-12T09:52:19.272Z,32.13
2017-08-12T09:54:47.843Z,39.87
2017-08-12T09:57:18.172Z,42.20
2017-08-12T09:59:47.578Z,49.03
2017-08-12T10:02:19.368Z,45.60
2017-08-12T10:04:47.798Z,40.50
2017-08-12T10:07:16.204Z,45.00
2017-08-12T10:09:44.671Z,41.27
2017-08-12T10:12:14.160Z,47.10
2017-08-12T10:14:42.561Z,50.33
2017-08-12T10:17:10.937Z,50.87
2017-08-12T10:19:39.536Z,50.53
2017-08-12T10:22:11.075Z,48.63
2017-08-12T10:24:44.568Z,46.23
2017-08-12T10:27:12.943Z,49.90
2017-08-12T10:29:42.454Z,40.50
2017-08-12T10:32:10.834Z,46.03
2017-08-12T10:34:39.235Z,44.87
2017-08-12T10:37:07.605Z,43.43
2017-08-12T10:39:36.997Z,44.17
2017-08-12T10:42:06.405Z,40.83
2017-08-12T10:44:34.793Z,36.30
2017-08-12T10:47:03.233Z,39.37
2017-08-12T10:49:31.620Z,40.70
2017-08-12T10:52:00.084Z,36.80
2017-08-12T10:54:28.550Z,38.73
2017-08-12T10:56:56.936Z,33.67
2017-08-12T10:59:25.308Z,33.90
2017-08-12T11:01:53.716Z,28.53
2017-08-12T11:04:22.097Z,34.17
2017-08-12T11:06:50.488Z,35.60
2017-08-12T11:09:19.035Z,26.23
2017-08-12T11:11:47.460Z,28.57
2017-08-12T11:14:15.888Z,28.23
2017-08-12T11:16:44.264Z,28.10
2017-08-12T11:19:12.661Z,25.37
2017-08-12T11:21:42.081Z,25.87
2017-08-12T11:24:10.545Z,27.87
2017-08-12T11:26:38.936Z,19.33
2017-08-12T11:29:07.393Z,21.07
2017-08-12T11:31:35.773Z,24.07
2017-08-12T11:34:04.244Z,22.23
2017-08-12T11:36:33.547Z,20.80
2017-08-12T11:39:01.941Z,18.20
2017-08-12T11:41:30.308Z,19.13
2017-08-12T11:44:03.184Z,21.33
2017-08-12T11:46:31.556Z,25.33
2017-08-12T11:48:59.953Z,17.60
2017-08-12T11:51:29.347Z,21.80
2017-08-12T11:53:57.824Z,19.03
2017-08-12T11:56:26.212Z,18.93
2017-08-12T11:58:54.625Z,24.07
2017-08-12T12:01:23.068Z,23.17
2017-08-12T12:03:51.449Z,22.70
2017-08-12T12:06:19.825Z,20.30
2017-08-12T12:08:48.240Z,24.40
2017-08-12T12:11:16.620Z,23.13
2017-08-12T12:13:44.991Z,21.30
2017-08-12T12:16:14.142Z,18.63
2017-08-12T12:18:42.525Z,21.57
2017-08-12T12:21:11.120Z,15.97
2017-08-12T12:23:39.498Z,20.90
2017-08-12T12:26:07.907Z,21.30
2017-08-12T12:28:36.290Z,17.23
2017-08-12T12:31:04.686Z,18.97
2017-08-12T12:33:34.044Z,19.33
2017-08-12T12:36:02.509Z,21.93
2017-08-12T12:38:31.089Z,20.77
2017-08-12T12:40:59.564Z,21.57
2017-08-12T12:43:27.935Z,18.93
2017-08-12T12:45:56.305Z,16.60
2017-08-12T12:48:24.804Z,18.07
2017-08-12T12:50:53.179Z,21.23
2017-08-12T12:53:21.595Z,20.73
2017-08-12T12:55:49.967Z,16.37
2017-08-12T12:58:18.377Z,21.70
2017-08-12T13:00:46.900Z,18.63
2017-08-12T13:03:16.221Z,16.67
2017-08-12T13:05:44.709Z,16.83
2017-08-12T13:08:13.099Z,17.80
2017-08-12T13:10:41.552Z,17.33
2017-08-12T13:13:09.956Z,16.97
2017-08-12T13:15:38.351Z,15.30
2017-08-12T13:18:06.748Z,16.37
2017-08-12T13:20:35.116Z,18.53
2017-08-12T13:23:04.555Z,18.43
2017-08-12T13:25:33.144Z,14.67
2017-08-12T13:28:01.621Z,18.07
2017-08-12T13:30:30.095Z,17.93
2017-08-12T13:32:58.580Z,14.47
2017-08-12T13:35:26.955Z,16.10
2017-08-12T13:37:55.352Z,12.37
2017-08-12T13:40:23.740Z,16.43
2017-08-12T13:42:52.108Z,13.30
2017-08-12T13:45:20.500Z,12.43
2017-08-12T13:47:48.876Z,9.73
2017-08-12T13:50:18.128Z,8.67
2017-08-12T13:52:46.652Z,9.37
2017-08-12T13:55:15.044Z,8.17
2017-08-12T13:57:43.414Z,8.33
2017-08-12T14:00:12.071Z,7.93
2017-08-12T14:02:40.485Z,7.40
2017-08-12T14:05:10.077Z,7.47
2017-08-12T14:07:38.458Z,6.63
2017-08-12T14:10:07.757Z,5.77
2017-08-12T14:12:36.189Z,5.60
2017-08-12T14:15:04.608Z,4.43
2017-08-12T14:17:33.035Z,7.93
2017-08-12T14:20:01.453Z,4.83
2017-08-12T14:22:29.851Z,5.20
2017-08-12T14:24:58.218Z,4.50
2017-08-12T14:27:26.616Z,4.27
2017-08-12T14:29:55.064Z,5.17
2017-08-12T14:32:27.077Z,4.10
2017-08-12T14:34:55.472Z,4.27
2017-08-12T14:37:23.876Z,5.70
2017-08-12T14:39:52.254Z,7.77
2017-08-12T14:42:20.623Z,5.60
2017-08-12T14:44:49.048Z,4.53
2017-08-12T14:47:18.421Z,4.97
2017-08-12T14:49:47.800Z,5.20
2017-08-12T14:52:17.128Z,6.27
2017-08-12T14:54:45.609Z,6.07
2017-08-12T14:57:13.981Z,7.00
2017-08-12T14:59:42.677Z,6.67
2017-08-12T15:02:11.157Z,4.50
2017-08-12T15:04:39.531Z,6.33
2017-08-12T15:07:07.921Z,5.67
2017-08-12T15:09:36.341Z,5.50
2017-08-12T15:12:04.721Z,6.93
2017-08-12T15:14:33.116Z,6.43
2017-08-12T15:17:01.663Z,6.60
2017-08-12T15:19:30.105Z,8.13
2017-08-12T15:21:58.498Z,10.93
2017-08-12T15:24:26.973Z,7.17
2017-08-12T15:26:55.349Z,8.20
2017-08-12T15:29:25.781Z,8.33
2017-08-12T15:31:54.154Z,7.20
2017-08-12T15:34:22.633Z,7.23
2017-08-12T15:36:51.114Z,10.63
2017-08-12T15:39:19.508Z,8.00
2017-08-12T15:41:47.960Z,7.43
2017-08-12T15:44:16.388Z,14.33
2017-08-12T15:46:44.760Z,9.87
2017-08-12T15:49:13.209Z,6.53
2017-08-12T15:51:41.604Z,7.83
2017-08-12T15:54:10.095Z,6.93
2017-08-12T15:56:38.489Z,11.40
2017-08-12T15:59:06.859Z,9.17
2017-08-12T16:01:35.249Z,7.53
2017-08-12T16:04:03.615Z,5.83
2017-08-12T16:06:32.084Z,6.53
2017-08-12T16:09:00.460Z,5.90
2017-08-12T16:11:28.932Z,5.13
2017-08-12T16:13:57.331Z,4.73
2017-08-12T16:16:25.920Z,3.97
2017-08-12T16:18:54.394Z,2.80
2017-08-12T16:21:22.884Z,1.90
2017-08-12T16:23:51.267Z,2.53
2017-08-12T16:26:19.634Z,1.40
2017-08-12T16:28:48.024Z,1.20
2017-08-12T16:31:16.496Z,1.50
2017-08-12T16:33:44.965Z,1.40
2017-08-12T16:36:13.317Z,1.70
2017-08-12T16:38:42.725Z,1.80
2017-08-12T16:41:11.097Z,1.63
2017-08-12T16:43:39.488Z,2.50
2017-08-12T16:46:07.855Z,1.73
2017-08-12T16:48:36.350Z,3.73
2017-08-12T16:51:04.718Z,2.30
2017-08-12T16:53:34.135Z,4.50
2017-08-12T16:56:02.500Z,2.63
2017-08-12T16:58:30.919Z,3.60
2017-08-12T17:00:59.307Z,2.40
2017-08-12T17:03:27.705Z,2.70
2017-08-12T17:05:57.984Z,2.87
2017-08-12T17:08:26.397Z,3.20
2017-08-12T17:10:54.881Z,6.57
2017-08-12T17:13:23.252Z,8.27
2017-08-12T17:15:51.644Z,5.50
2017-08-12T17:18:20.931Z,3.00
2017-08-12T17:20:49.335Z,2.40
2017-08-12T17:23:18.718Z,4.80
2017-08-12T17:25:47.193Z,1.70
2017-08-12T17:28:15.568Z,2.07
2017-08-12T17:30:43.980Z,3.53
2017-08-12T17:33:12.352Z,4.00
2017-08-12T17:35:40.912Z,6.43
2017-08-12T17:38:09.276Z,3.13
2017-08-12T17:40:37.715Z,2.63
2017-08-12T17:43:07.211Z,2.10
2017-08-12T17:45:35.680Z,2.83
2017-08-12T17:48:04.053Z,2.30
2017-08-12T17:50:32.456Z,2.60
2017-08-12T17:53:01.850Z,3.40
2017-08-12T17:55:30.321Z,4.50
2017-08-12T17:57:58.804Z,2.10
2017-08-12T18:00:27.556Z,2.30
2017-08-12T18:02:55.965Z,5.40
2017-08-12T18:05:24.349Z,4.37
2017-08-12T18:07:52.877Z,2.23
2017-08-12T18:10:21.242Z,4.63
2017-08-12T18:12:49.627Z,5.00
2017-08-12T18:15:18.008Z,2.63
2017-08-12T18:17:46.452Z,2.27
2017-08-12T18:20:14.821Z,5.43
2017-08-12T18:22:43.228Z,8.13
2017-08-12T18:25:11.605Z,5.40
2017-08-12T18:27:39.990Z,6.57
2017-08-12T18:30:08.453Z,3.07
2017-08-12T18:32:36.865Z,4.93
2017-08-12T18:35:06.224Z,2.83
2017-08-12T18:37:34.725Z,3.83
2017-08-12T18:40:03.205Z,2.97
2017-08-12T18:42:31.620Z,9.40
2017-08-12T18:45:00.986Z,3.80
2017-08-12T18:47:29.372Z,9.27
2017-08-12T18:49:57.773Z,4.60
2017-08-12T18:52:26.209Z,15.20
2017-08-12T18:54:54.690Z,3.03
2017-08-12T18:57:23.064Z,7.80
2017-08-12T18:59:51.562Z,5.67
2017-08-12T19:02:21.055Z,7.53
2017-08-12T19:04:51.377Z,4.17
2017-08-12T19:07:20.808Z,4.93
2017-08-12T19:09:49.348Z,5.20
2017-08-12T19:12:17.839Z,6.63
2017-08-12T19:14:46.382Z,4.20
2017-08-12T19:17:15.712Z,6.90
2017-08-12T19:19:44.099Z,6.10
2017-08-12T19:22:12.478Z,8.70
2017-08-12T19:24:41.889Z,4.90
2017-08-12T19:27:10.260Z,4.57
2017-08-12T19:29:38.654Z,6.50
2017-08-12T19:32:11.880Z,10.47
2017-08-12T19:34:42.476Z,4.70
2017-08-12T19:37:10.939Z,5.23
2017-08-12T19:39:39.449Z,3.93
2017-08-12T19:42:07.840Z,10.00
2017-08-12T19:44:36.232Z,10.83
2017-08-12T19:47:05.660Z,14.77
2017-08-12T19:49:34.121Z,5.97
2017-08-12T19:52:02.487Z,3.23
2017-08-12T19:54:31.920Z,17.93
2017-08-12T19:57:00.309Z,9.47
2017-08-12T19:59:28.775Z,6.23
2017-08-12T20:01:57.248Z,12.97
2017-08-12T20:04:25.644Z,7.10
2017-08-12T20:06:54.112Z,7.00
2017-08-12T20:09:22.583Z,8.83
2017-08-12T20:11:50.976Z,12.30
2017-08-12T20:14:19.351Z,5.27
2017-08-12T20:16:47.723Z,8.23
2017-08-12T20:19:16.209Z,10.70
2017-08-12T20:21:44.684Z,4.90
2017-08-12T20:24:13.164Z,5.20
2017-08-12T20:26:41.532Z,11.53
2017-08-12T20:29:09.930Z,8.13
2017-08-12T20:31:38.719Z,5.73
2017-08-12T20:34:07.192Z,10.50
2017-08-12T20:36:35.673Z,6.90
2017-08-12T20:39:04.093Z,7.67
2017-08-12T20:41:32.480Z,10.60
2017-08-12T20:44:02.038Z,5.60
2017-08-12T20:46:30.523Z,18.10
2017-08-12T20:48:58.912Z,18.37
2017-08-12T20:51:27.323Z,10.10
2017-08-12T20:53:55.751Z,5.43
2017-08-12T20:56:24.136Z,16.17
2017-08-12T20:58:52.613Z,7.60
2017-08-12T21:01:21.045Z,7.93
2017-08-12T21:03:49.537Z,8.73
2017-08-12T21:06:18.896Z,9.80
2017-08-12T21:08:47.264Z,5.80
2017-08-12T21:11:15.722Z,15.00
2017-08-12T21:13:44.132Z,5.70
2017-08-12T21:16:12.600Z,4.70
2017-08-12T21:18:41.056Z,10.73
2017-08-12T21:21:09.657Z,6.23
2017-08-12T21:23:38.040Z,8.53
2017-08-12T21:26:06.628Z,7.67
2017-08-12T21:28:35.096Z,9.10
2017-08-12T21:31:03.673Z,13.07
2017-08-12T21:33:32.165Z,8.97
2017-08-12T21:36:00.649Z,4.27
2017-08-12T21:38:29.021Z,5.70
2017-08-12T21:40:57.428Z,8.43
2017-08-12T21:43:25.807Z,6.47
2017-08-12T21:45:54.192Z,7.93
2017-08-12T21:48:22.564Z,8.70
2017-08-12T21:50:51.016Z,10.47
2017-08-12T21:53:19.384Z,7.97
2017-08-12T21:55:47.792Z,11.27
2017-08-12T21:58:16.156Z,4.83
2017-08-12T22:00:44.579Z,8.27
2017-08-12T22:03:13.293Z,6.50
2017-08-12T22:05:40.231Z,7.93
2017-08-12T22:08:07.156Z,4.67
2017-08-12T22:10:34.145Z,5.63
2017-08-12T22:13:01.091Z,8.73
2017-08-12T22:15:28.020Z,7.80
2017-08-12T22:17:54.977Z,12.63
2017-08-12T22:20:21.918Z,6.53
2017-08-12T22:22:48.884Z,7.53
2017-08-12T22:25:15.817Z,7.80
2017-08-12T22:27:42.789Z,6.80
2017-08-12T22:30:09.717Z,13.37
2017-08-12T22:32:36.673Z,7.50
2017-08-12T22:35:03.614Z,12.87
2017-08-12T22:37:30.586Z,2.87
2017-08-12T22:39:58.295Z,4.67
2017-08-12T22:42:25.256Z,11.43
2017-08-12T22:44:52.193Z,7.33
2017-08-12T22:47:19.143Z,6.90
2017-08-12T22:49:46.072Z,10.63
2017-08-12T22:52:13.012Z,12.80
2017-08-12T22:54:39.940Z,12.37
2017-08-12T22:57:06.897Z,10.60
2017-08-12T22:59:34.783Z,8.63
2017-08-12T23:02:01.745Z,8.60
2017-08-12T23:04:29.696Z,9.10
2017-08-12T23:06:56.721Z,9.93
2017-08-12T23:09:23.660Z,4.57
2017-08-12T23:11:51.636Z,3.40
2017-08-12T23:14:18.576Z,8.93
2017-08-12T23:16:48.212Z,5.97
2017-08-12T23:19:15.157Z,7.40
2017-08-12T23:21:43.169Z,12.37
2017-08-12T23:24:11.178Z,15.73
2017-08-12T23:26:38.172Z,12.37
2017-08-12T23:29:05.868Z,18.30
2017-08-12T23:31:32.824Z,7.80
2017-08-12T23:33:59.758Z,10.43
2017-08-12T23:36:26.708Z,11.10
2017-08-12T23:38:53.714Z,3.57
2017-08-12T23:41:20.702Z,6.37
2017-08-12T23:43:47.632Z,10.20
2017-08-12T23:46:14.565Z,12.03
2017-08-12T23:48:41.533Z,9.70
2017-08-12T23:51:08.615Z,7.20
2017-08-12T23:53:35.558Z,17.10
2017-08-12T23:56:02.497Z,13.53
2017-08-12T23:58:29.450Z,9.83
